createdAt,value
2022-07-28T00:01:30.319Z,77.73
2022-07-28T00:03:58.096Z,77.13
2022-07-28T00:06:25.543Z,78.27
2022-07-28T00:08:53.101Z,69.88
2022-07-28T00:11:20.652Z,74.81
2022-07-28T00:13:48.116Z,77.53
2022-07-28T00:16:15.636Z,78.54
2022-07-28T00:18:43.963Z,79.29
2022-07-28T00:21:11.462Z,80.33
2022-07-28T00:23:39.879Z,80.04
2022-07-28T00:26:08.992Z,81.52
2022-07-28T00:28:37.414Z,81.16
2022-07-28T00:31:06.732Z,72.65
2022-07-28T00:33:37.970Z,76.45
2022-07-28T00:36:05.610Z,79.66
2022-07-28T00:38:35.193Z,81.01
2022-07-28T00:41:11.694Z,81.38
2022-07-28T00:43:43.411Z,82.00
2022-07-28T00:46:11.895Z,82.96
2022-07-28T00:48:41.170Z,83.27
2022-07-28T00:51:10.352Z,83.72
2022-07-28T00:53:40.669Z,84.61
2022-07-28T00:56:08.264Z,84.83
2022-07-28T00:58:39.650Z,82.99
2022-07-28T01:01:12.393Z,75.34
2022-07-28T01:03:42.406Z,80.60
2022-07-28T01:06:16.833Z,83.92
2022-07-28T01:09:08.691Z,83.80
2022-07-28T01:12:01.887Z,84.61
2022-07-28T01:14:35.813Z,86.12
2022-07-28T01:17:12.413Z,83.37
2022-07-28T01:20:09.927Z,79.41
2022-07-28T01:23:12.947Z,85.76
2022-07-28T01:25:40.260Z,87.84
2022-07-28T01:28:46.992Z,88.69
2022-07-28T01:31:22.372Z,89.59
2022-07-28T01:33:55.531Z,90.64
2022-07-28T01:36:30.172Z,91.34
2022-07-28T01:39:00.013Z,91.83
2022-07-28T01:41:30.261Z,92.47
2022-07-28T01:44:02.271Z,92.82
2022-07-28T01:46:30.902Z,93.59
2022-07-28T01:49:00.135Z,94.20
2022-07-28T01:51:30.780Z,94.38
2022-07-28T01:54:00.783Z,85.46
2022-07-28T01:56:31.182Z,89.91
2022-07-28T01:59:03.419Z,93.44
2022-07-28T02:01:36.817Z,94.41
2022-07-28T02:04:07.374Z,94.71
2022-07-28T02:06:35.893Z,94.98
2022-07-28T02:09:05.773Z,95.45
2022-07-28T02:11:42.182Z,95.48
2022-07-28T02:14:13.796Z,96.19
2022-07-28T02:17:04.614Z,96.34
2022-07-28T02:19:33.396Z,88.92
2022-07-28T02:22:03.588Z,89.87
2022-07-28T02:24:33.035Z,93.39
2022-07-28T02:27:25.307Z,94.68
2022-07-28T02:30:12.751Z,95.40
2022-07-28T02:32:43.451Z,95.08
2022-07-28T02:35:39.044Z,95.88
2022-07-28T02:38:15.368Z,96.16
2022-07-28T02:40:45.332Z,96.21
2022-07-28T02:43:16.494Z,96.89
2022-07-28T02:45:47.647Z,96.25
2022-07-28T02:48:18.305Z,86.53
2022-07-28T02:50:46.902Z,92.96
2022-07-28T02:53:16.359Z,95.49
2022-07-28T02:55:49.110Z,96.95
2022-07-28T02:58:21.373Z,97.37
2022-07-28T03:00:54.422Z,97.66
2022-07-28T03:03:23.150Z,98.62
2022-07-28T03:05:50.664Z,99.19
2022-07-28T03:08:18.205Z,99.33
2022-07-28T03:10:46.299Z,96.57
2022-07-28T03:13:13.844Z,90.78
2022-07-28T03:15:41.293Z,96.43
2022-07-28T03:18:08.944Z,98.97
2022-07-28T03:20:36.569Z,99.79
2022-07-28T03:23:04.623Z,100.00
2022-07-28T03:25:49.103Z,100.00
2022-07-28T03:28:20.588Z,100.00
2022-07-28T03:31:10.184Z,100.00
2022-07-28T03:33:39.006Z,100.00
2022-07-28T03:36:12.470Z,100.00
2022-07-28T03:38:46.340Z,100.00
2022-07-28T03:41:17.069Z,95.73
2022-07-28T03:43:45.172Z,95.45
2022-07-28T03:46:13.701Z,100.00
2022-07-28T03:48:41.585Z,100.00
2022-07-28T03:51:09.738Z,100.00
2022-07-28T03:53:37.572Z,100.00
2022-07-28T03:56:05.440Z,100.00
2022-07-28T03:58:32.790Z,100.00
2022-07-28T04:01:00.320Z,100.00
2022-07-28T04:03:36.630Z,97.05
2022-07-28T04:06:14.227Z,91.36
2022-07-28T04:08:42.722Z,93.25
2022-07-28T04:11:10.120Z,99.04
2022-07-28T04:13:37.715Z,99.80
2022-07-28T04:16:07.569Z,100.00
2022-07-28T04:18:35.872Z,100.00
2022-07-28T04:21:03.656Z,100.00
2022-07-28T04:23:31.310Z,100.00
2022-07-28T04:25:58.932Z,100.00
2022-07-28T04:28:26.480Z,100.00
2022-07-28T04:30:53.798Z,100.00
2022-07-28T04:33:21.488Z,100.00
2022-07-28T04:35:48.813Z,100.00
2022-07-28T04:38:18.321Z,100.00
2022-07-28T04:40:46.646Z,97.55
2022-07-28T04:43:14.550Z,91.74
2022-07-28T04:45:53.610Z,98.04
2022-07-28T04:48:23.735Z,100.00
2022-07-28T04:50:53.173Z,100.00
2022-07-28T04:53:22.372Z,100.00
2022-07-28T04:55:49.896Z,100.00
2022-07-28T04:58:19.381Z,100.00
2022-07-28T05:00:49.939Z,100.00
2022-07-28T05:03:18.900Z,100.00
2022-07-28T05:05:52.875Z,100.00
2022-07-28T05:08:25.795Z,91.94
2022-07-28T05:10:54.991Z,97.69
2022-07-28T05:13:22.581Z,99.24
2022-07-28T05:15:50.138Z,100.00
2022-07-28T05:18:18.027Z,100.00
2022-07-28T05:20:45.371Z,100.00
2022-07-28T05:23:13.182Z,100.00
2022-07-28T05:25:40.454Z,100.00
2022-07-28T05:28:08.086Z,100.00
2022-07-28T05:30:37.297Z,99.48
2022-07-28T05:33:05.163Z,90.66
2022-07-28T05:35:32.735Z,96.91
2022-07-28T05:38:00.255Z,98.63
2022-07-28T05:40:28.143Z,98.56
2022-07-28T05:42:55.549Z,98.79
2022-07-28T05:45:23.002Z,99.74
2022-07-28T05:47:53.043Z,98.96
2022-07-28T05:50:25.430Z,99.36
2022-07-28T05:52:53.088Z,99.24
2022-07-28T05:55:21.176Z,97.41
2022-07-28T05:57:49.081Z,91.68
2022-07-28T06:00:19.965Z,94.90
2022-07-28T06:02:52.104Z,97.82
2022-07-28T06:05:21.728Z,97.65
2022-07-28T06:07:50.748Z,96.98
2022-07-28T06:10:20.471Z,97.57
2022-07-28T06:12:53.614Z,97.32
2022-07-28T06:15:25.984Z,96.62
2022-07-28T06:17:55.882Z,91.76
2022-07-28T06:20:24.782Z,86.36
2022-07-28T06:22:55.374Z,91.80
2022-07-28T06:25:28.553Z,94.39
2022-07-28T06:27:58.012Z,93.12
2022-07-28T06:30:26.856Z,93.59
2022-07-28T06:32:54.786Z,94.45
2022-07-28T06:35:25.539Z,93.48
2022-07-28T06:37:54.965Z,93.16
2022-07-28T06:40:22.783Z,89.25
2022-07-28T06:42:50.835Z,83.97
2022-07-28T06:45:21.043Z,88.59
2022-07-28T06:47:53.737Z,90.05
2022-07-28T06:50:25.801Z,92.30
2022-07-28T06:52:59.089Z,91.74
2022-07-28T06:55:31.314Z,90.94
2022-07-28T06:58:03.073Z,90.04
2022-07-28T07:00:31.010Z,86.25
2022-07-28T07:03:00.625Z,80.00
2022-07-28T07:05:32.712Z,84.39
2022-07-28T07:08:01.261Z,87.07
2022-07-28T07:10:28.986Z,86.50
2022-07-28T07:12:56.813Z,87.69
2022-07-28T07:15:24.418Z,88.34
2022-07-28T07:17:54.595Z,88.63
2022-07-28T07:20:22.636Z,87.87
2022-07-28T07:22:53.091Z,77.73
2022-07-28T07:25:21.676Z,81.10
2022-07-28T07:27:49.276Z,84.22
2022-07-28T07:30:17.665Z,85.18
2022-07-28T07:32:45.823Z,84.24
2022-07-28T07:35:13.535Z,83.62
2022-07-28T07:37:41.307Z,82.87
2022-07-28T07:40:09.928Z,78.53
2022-07-28T07:42:38.352Z,71.85
2022-07-28T07:45:06.532Z,76.19
2022-07-28T07:47:34.437Z,76.62
2022-07-28T07:50:04.432Z,77.22
2022-07-28T07:52:32.624Z,76.58
2022-07-28T07:55:00.245Z,76.22
2022-07-28T07:57:27.895Z,73.31
2022-07-28T07:59:55.535Z,66.53
2022-07-28T08:02:23.257Z,67.81
2022-07-28T08:04:53.795Z,68.87
2022-07-28T08:07:22.345Z,68.60
2022-07-28T08:09:50.263Z,68.72
2022-07-28T08:12:24.781Z,69.17
2022-07-28T08:14:54.140Z,65.48
2022-07-28T08:17:25.876Z,61.71
2022-07-28T08:19:55.299Z,63.91
2022-07-28T08:22:23.435Z,64.25
2022-07-28T08:24:51.476Z,65.56
2022-07-28T08:27:19.307Z,65.25
2022-07-28T08:29:47.227Z,64.71
2022-07-28T08:32:15.023Z,58.13
2022-07-28T08:34:42.990Z,58.12
2022-07-28T08:37:10.702Z,58.51
2022-07-28T08:39:38.330Z,52.09
2022-07-28T08:42:18.171Z,53.27
2022-07-28T08:44:55.591Z,55.42
2022-07-28T08:47:24.086Z,55.49
2022-07-28T08:49:54.745Z,56.47
2022-07-28T08:52:25.213Z,55.80
2022-07-28T08:54:56.922Z,56.20
2022-07-28T08:57:31.060Z,57.12
2022-07-28T08:59:58.957Z,51.00
2022-07-28T09:02:29.318Z,47.56
2022-07-28T09:04:58.678Z,47.65
2022-07-28T09:07:27.049Z,47.64
2022-07-28T09:09:57.253Z,48.76
2022-07-28T09:12:30.271Z,50.20
2022-07-28T09:14:57.952Z,51.36
2022-07-28T09:17:25.896Z,51.05
2022-07-28T09:19:53.461Z,51.88
2022-07-28T09:22:21.050Z,51.64
2022-07-28T09:24:48.867Z,51.48
2022-07-28T09:27:16.681Z,48.29
2022-07-28T09:29:58.833Z,48.12
2022-07-28T09:32:27.795Z,49.71
2022-07-28T09:34:56.464Z,50.76
2022-07-28T09:37:27.673Z,50.68
2022-07-28T09:40:00.216Z,51.05
2022-07-28T09:42:46.308Z,50.06
2022-07-28T09:45:23.335Z,46.95
2022-07-28T09:48:12.372Z,50.57
2022-07-28T09:50:41.759Z,52.06
2022-07-28T09:53:28.593Z,51.29
2022-07-28T09:55:57.679Z,46.70
2022-07-28T09:58:25.490Z,48.52
2022-07-28T10:01:21.374Z,49.35
2022-07-28T10:04:02.679Z,48.91
2022-07-28T10:06:32.726Z,47.04
2022-07-28T10:09:08.214Z,46.87
2022-07-28T10:11:41.365Z,46.89
2022-07-28T10:14:09.553Z,47.45
2022-07-28T10:16:43.984Z,47.41
2022-07-28T10:19:11.562Z,47.90
2022-07-28T10:21:44.613Z,48.37
2022-07-28T10:24:22.489Z,47.44
2022-07-28T10:26:51.251Z,44.59
2022-07-28T10:29:22.922Z,43.28
2022-07-28T10:32:05.443Z,45.76
2022-07-28T10:34:40.385Z,46.17
2022-07-28T10:37:10.882Z,47.01
2022-07-28T10:39:52.166Z,46.53
2022-07-28T10:42:22.860Z,44.13
2022-07-28T10:44:54.235Z,45.08
2022-07-28T10:47:23.794Z,45.81
2022-07-28T10:49:55.209Z,45.25
2022-07-28T10:52:46.846Z,43.38
2022-07-28T10:55:32.191Z,45.60
2022-07-28T10:58:25.116Z,45.61
2022-07-28T11:01:05.098Z,43.73
2022-07-28T11:03:45.316Z,42.59
2022-07-28T11:06:29.061Z,44.69
2022-07-28T11:09:19.107Z,44.76
2022-07-28T11:11:55.012Z,43.43
2022-07-28T11:14:25.752Z,41.54
2022-07-28T11:17:10.167Z,42.94
2022-07-28T11:20:16.830Z,43.21
2022-07-28T11:22:34.723Z,43.32
2022-07-28T11:25:19.648Z,41.62
2022-07-28T11:27:54.714Z,43.11
2022-07-28T11:30:36.564Z,43.84
2022-07-28T11:33:07.450Z,43.70
2022-07-28T11:35:41.779Z,42.43
2022-07-28T11:38:11.281Z,40.82
2022-07-28T11:40:43.952Z,42.26
2022-07-28T11:43:35.548Z,42.15
2022-07-28T11:46:10.433Z,42.47
2022-07-28T11:48:41.100Z,42.49
2022-07-28T11:51:10.772Z,40.60
2022-07-28T11:53:45.374Z,41.90
2022-07-28T11:56:15.125Z,42.53
2022-07-28T11:58:43.752Z,39.60
2022-07-28T12:01:19.819Z,41.01
2022-07-28T12:03:55.144Z,41.44
2022-07-28T12:06:28.628Z,41.80
2022-07-28T12:09:07.636Z,39.28
2022-07-28T12:11:37.273Z,40.49
2022-07-28T12:14:19.153Z,41.81
2022-07-28T12:16:51.028Z,42.37
2022-07-28T12:19:20.236Z,40.50
2022-07-28T12:21:55.626Z,41.28
2022-07-28T12:24:30.432Z,41.57
2022-07-28T12:26:59.899Z,42.71
2022-07-28T12:29:35.734Z,40.38
2022-07-28T12:32:13.243Z,40.84
2022-07-28T12:34:40.897Z,42.33
2022-07-28T12:37:12.751Z,43.13
2022-07-28T12:39:42.951Z,41.11
2022-07-28T12:42:12.680Z,42.35
2022-07-28T12:44:42.614Z,43.07
2022-07-28T12:47:12.813Z,42.95
2022-07-28T12:49:45.612Z,40.63
2022-07-28T12:52:24.388Z,42.36
2022-07-28T12:54:55.692Z,43.53
2022-07-28T12:57:48.075Z,42.47
2022-07-28T13:00:19.927Z,42.05
2022-07-28T13:02:49.361Z,43.35
2022-07-28T13:05:29.043Z,42.79
2022-07-28T13:08:04.966Z,41.99
2022-07-28T13:10:32.812Z,43.52
2022-07-28T13:13:06.089Z,43.64
2022-07-28T13:15:34.142Z,42.01
2022-07-28T13:18:01.944Z,40.91
2022-07-28T13:20:29.855Z,42.40
2022-07-28T13:22:59.952Z,42.83
2022-07-28T13:25:27.949Z,43.50
2022-07-28T13:27:56.137Z,40.30
2022-07-28T13:30:26.623Z,41.48
2022-07-28T13:32:55.116Z,42.13
2022-07-28T13:35:23.165Z,42.83
2022-07-28T13:37:50.593Z,38.86
2022-07-28T13:40:17.899Z,40.95
2022-07-28T13:42:53.127Z,41.16
2022-07-28T13:45:24.896Z,41.26
2022-07-28T13:47:58.618Z,42.27
2022-07-28T13:50:26.184Z,42.34
2022-07-28T13:52:54.198Z,42.99
2022-07-28T13:55:23.125Z,41.47
2022-07-28T13:57:51.523Z,39.80
2022-07-28T14:00:22.671Z,41.28
2022-07-28T14:02:50.918Z,42.54
2022-07-28T14:05:21.516Z,42.65
2022-07-28T14:07:50.769Z,42.55
2022-07-28T14:10:18.604Z,42.72
2022-07-28T14:12:46.711Z,40.20
2022-07-28T14:15:14.643Z,41.25
2022-07-28T14:17:43.867Z,41.87
2022-07-28T14:20:14.354Z,43.32
2022-07-28T14:22:46.555Z,42.76
2022-07-28T14:25:20.854Z,40.55
2022-07-28T14:27:49.957Z,41.27
2022-07-28T14:30:18.360Z,42.15
2022-07-28T14:32:46.800Z,43.03
2022-07-28T14:35:14.160Z,42.99
2022-07-28T14:38:23.158Z,41.24
2022-07-28T14:40:30.745Z,40.20
2022-07-28T14:42:58.343Z,41.81
2022-07-28T14:45:26.460Z,42.40
2022-07-28T14:47:55.646Z,43.39
2022-07-28T14:50:24.427Z,42.60
2022-07-28T14:52:52.402Z,40.34
2022-07-28T14:55:20.417Z,40.96
2022-07-28T14:57:54.191Z,41.94
2022-07-28T15:00:24.204Z,42.40
2022-07-28T15:02:53.325Z,41.27
2022-07-28T15:05:22.272Z,39.41
2022-07-28T15:07:52.346Z,41.58
2022-07-28T15:10:20.914Z,41.47
2022-07-28T15:12:48.255Z,41.12
2022-07-28T15:15:15.871Z,39.46
2022-07-28T15:17:43.679Z,40.32
2022-07-28T15:20:11.733Z,40.38
2022-07-28T15:22:39.169Z,39.04
2022-07-28T15:25:06.826Z,39.30
2022-07-28T15:27:34.190Z,39.18
2022-07-28T15:30:04.486Z,38.24
2022-07-28T15:32:47.518Z,38.59
2022-07-28T15:35:23.418Z,38.51
2022-07-28T15:37:52.034Z,38.72
2022-07-28T15:40:20.714Z,38.75
2022-07-28T15:42:48.249Z,38.06
2022-07-28T15:45:15.768Z,38.10
2022-07-28T15:47:43.365Z,38.27
2022-07-28T15:50:11.020Z,37.38
2022-07-28T15:52:38.393Z,37.37
2022-07-28T15:55:06.653Z,37.23
2022-07-28T15:57:37.625Z,37.31
2022-07-28T16:00:07.069Z,37.09
2022-07-28T16:02:35.113Z,37.03
2022-07-28T16:05:02.701Z,38.11
2022-07-28T16:07:31.303Z,40.13
2022-07-28T16:10:00.302Z,40.42
2022-07-28T16:12:27.613Z,42.02
2022-07-28T16:14:55.898Z,40.31
2022-07-28T16:17:23.814Z,39.14
2022-07-28T16:19:52.139Z,38.89
2022-07-28T16:22:20.453Z,40.40
2022-07-28T16:24:48.383Z,41.73
2022-07-28T16:27:15.661Z,42.45
2022-07-28T16:29:45.023Z,40.54
2022-07-28T16:32:12.592Z,39.39
2022-07-28T16:34:40.343Z,42.50
2022-07-28T16:37:07.858Z,43.58
2022-07-28T16:39:35.795Z,43.18
2022-07-28T16:42:03.441Z,41.61
2022-07-28T16:44:31.389Z,42.09
2022-07-28T16:46:59.164Z,42.81
2022-07-28T16:49:27.079Z,42.15
2022-07-28T16:51:55.747Z,43.12
2022-07-28T16:54:23.780Z,43.10
2022-07-28T16:56:51.755Z,44.02
2022-07-28T16:59:19.095Z,42.81
2022-07-28T17:01:46.939Z,42.04
2022-07-28T17:04:16.225Z,42.99
2022-07-28T17:06:43.820Z,43.46
2022-07-28T17:09:13.151Z,43.07
2022-07-28T17:11:42.358Z,44.11
2022-07-28T17:14:11.683Z,45.04
2022-07-28T17:16:39.251Z,44.29
2022-07-28T17:19:07.119Z,42.96
2022-07-28T17:21:36.158Z,41.93
2022-07-28T17:24:04.152Z,43.23
2022-07-28T17:29:19.978Z,45.04
2022-07-28T17:31:48.113Z,45.26
2022-07-28T17:34:16.391Z,43.21
2022-07-28T17:36:45.909Z,44.07
2022-07-28T17:39:13.457Z,43.53
2022-07-28T17:41:42.500Z,42.63
2022-07-28T17:44:17.309Z,42.25
2022-07-28T17:46:46.903Z,42.37
2022-07-28T17:49:14.744Z,42.13
2022-07-28T17:51:42.819Z,41.86
2022-07-28T17:54:13.839Z,41.61
2022-07-28T17:56:42.026Z,42.15
2022-07-28T17:59:10.140Z,42.35
2022-07-28T18:01:39.946Z,42.00
2022-07-28T18:04:11.504Z,42.62
2022-07-28T18:06:40.643Z,44.34
2022-07-28T18:09:10.871Z,45.30
2022-07-28T18:11:56.885Z,45.20
2022-07-28T18:14:30.403Z,45.65
2022-07-28T18:17:01.589Z,46.07
2022-07-28T18:19:29.861Z,45.28
2022-07-28T18:21:57.540Z,43.40
2022-07-28T18:24:25.117Z,43.14
2022-07-28T18:26:53.555Z,45.11
2022-07-28T18:29:22.071Z,46.28
2022-07-28T18:31:51.923Z,47.26
2022-07-28T18:34:23.795Z,46.89
2022-07-28T18:36:55.308Z,45.38
2022-07-28T18:39:25.720Z,47.54
2022-07-28T18:42:00.734Z,45.48
2022-07-28T18:44:28.339Z,45.89
2022-07-28T18:46:58.076Z,47.14
2022-07-28T18:49:26.260Z,47.57
2022-07-28T18:51:55.393Z,48.37
2022-07-28T18:54:27.227Z,45.80
2022-07-28T18:56:59.322Z,44.89
2022-07-28T18:59:26.971Z,44.78
2022-07-28T19:01:54.703Z,45.09
2022-07-28T19:04:22.728Z,44.60
2022-07-28T19:06:50.828Z,47.45
2022-07-28T19:09:18.609Z,48.67
2022-07-28T19:11:46.761Z,49.08
2022-07-28T19:14:16.148Z,49.25
2022-07-28T19:16:44.262Z,49.65
2022-07-28T19:19:12.343Z,50.01
2022-07-28T19:21:43.237Z,50.23
2022-07-28T19:24:13.685Z,48.85
2022-07-28T19:26:43.632Z,50.04
2022-07-28T19:29:11.616Z,50.51
2022-07-28T19:31:40.399Z,51.24
2022-07-28T19:34:11.376Z,50.18
2022-07-28T19:36:41.898Z,51.00
2022-07-28T19:39:09.696Z,52.20
2022-07-28T19:41:37.224Z,52.47
2022-07-28T19:44:05.086Z,52.82
2022-07-28T19:46:32.959Z,50.14
2022-07-28T19:49:00.961Z,50.48
2022-07-28T19:51:28.956Z,52.49
2022-07-28T19:53:57.663Z,52.72
2022-07-28T19:56:31.258Z,53.00
2022-07-28T19:58:59.765Z,50.55
2022-07-28T20:01:27.525Z,51.58
2022-07-28T20:04:03.405Z,53.29
2022-07-28T20:06:35.784Z,53.90
2022-07-28T20:09:04.550Z,53.87
2022-07-28T20:11:33.262Z,53.84
2022-07-28T20:14:04.049Z,52.21
2022-07-28T20:16:31.708Z,54.35
2022-07-28T20:19:02.968Z,55.25
2022-07-28T20:21:38.407Z,55.73
2022-07-28T20:24:07.305Z,54.16
2022-07-28T20:26:34.940Z,54.29
2022-07-28T20:29:02.553Z,55.75
2022-07-28T20:31:31.367Z,56.42
2022-07-28T20:33:58.900Z,56.86
2022-07-28T20:36:29.872Z,57.24
2022-07-28T20:38:57.863Z,56.48
2022-07-28T20:41:25.970Z,55.98
2022-07-28T20:44:18.361Z,57.18
2022-07-28T20:46:42.667Z,57.66
2022-07-28T20:49:11.721Z,59.21
2022-07-28T20:51:39.462Z,59.10
2022-07-28T20:54:18.536Z,55.46
2022-07-28T20:56:46.243Z,56.39
2022-07-28T20:59:14.308Z,58.12
2022-07-28T21:01:42.686Z,59.08
2022-07-28T21:04:11.341Z,59.33
2022-07-28T21:06:39.559Z,59.90
2022-07-28T21:09:18.438Z,57.25
2022-07-28T21:11:45.882Z,57.70
2022-07-28T21:14:13.839Z,59.55
2022-07-28T21:16:41.680Z,60.09
2022-07-28T21:19:09.469Z,60.44
2022-07-28T21:21:36.913Z,59.96
2022-07-28T21:24:04.506Z,56.43
2022-07-28T21:26:31.981Z,59.12
2022-07-28T21:29:12.433Z,60.24
2022-07-28T21:31:58.538Z,61.18
2022-07-28T21:34:31.268Z,61.70
2022-07-28T21:36:59.635Z,61.95
2022-07-28T21:39:27.430Z,58.23
2022-07-28T21:41:54.855Z,59.00
2022-07-28T21:44:23.140Z,61.39
2022-07-28T21:46:50.856Z,61.74
2022-07-28T21:49:18.982Z,62.24
2022-07-28T21:51:47.147Z,58.86
2022-07-28T21:54:14.948Z,58.74
2022-07-28T21:56:42.707Z,60.20
2022-07-28T21:59:10.167Z,60.66
2022-07-28T22:01:37.804Z,63.84
2022-07-28T22:04:05.750Z,67.03
2022-07-28T22:06:33.940Z,67.64
2022-07-28T22:09:05.781Z,69.29
2022-07-28T22:11:33.326Z,74.66
2022-07-28T22:14:01.663Z,82.60
2022-07-28T22:16:29.404Z,83.41
2022-07-28T22:18:57.234Z,88.43
2022-07-28T22:21:24.871Z,100.00
2022-07-28T22:23:52.432Z,100.00
2022-07-28T22:26:20.177Z,100.00
2022-07-28T22:28:51.307Z,100.00
2022-07-28T22:31:19.016Z,100.00
2022-07-28T22:33:46.677Z,100.00
2022-07-28T22:36:14.446Z,100.00
2022-07-28T22:38:41.970Z,100.00
2022-07-28T22:41:10.316Z,100.00
2022-07-28T22:43:38.247Z,100.00
2022-07-28T22:46:05.966Z,100.00
2022-07-28T22:48:33.496Z,100.00
2022-07-28T22:51:01.017Z,100.00
2022-07-28T22:53:28.692Z,100.00
2022-07-28T22:55:56.567Z,100.00
2022-07-28T22:58:24.219Z,100.00
2022-07-28T23:00:51.914Z,100.00
2022-07-28T23:03:19.769Z,100.00
2022-07-28T23:05:47.050Z,100.00
2022-07-28T23:08:14.489Z,100.00
2022-07-28T23:10:41.945Z,100.00
2022-07-28T23:13:09.338Z,100.00
2022-07-28T23:15:39.619Z,100.00
2022-07-28T23:18:08.193Z,100.00
2022-07-28T23:20:35.422Z,100.00
2022-07-28T23:23:03.226Z,100.00
2022-07-28T23:25:30.538Z,100.00
2022-07-28T23:27:58.016Z,100.00
2022-07-28T23:30:25.209Z,100.00
2022-07-28T23:32:53.405Z,100.00
2022-07-28T23:35:20.580Z,100.00
2022-07-28T23:37:48.085Z,100.00
2022-07-28T23:40:17.429Z,100.00
2022-07-28T23:42:44.807Z,100.00
2022-07-28T23:45:12.330Z,100.00
2022-07-28T23:47:40.072Z,100.00
2022-07-28T23:50:07.719Z,100.00
2022-07-28T23:52:35.162Z,100.00
2022-07-28T23:55:02.469Z,100.00
2022-07-28T23:57:31.575Z,100.00
2022-07-28T23:59:59.908Z,100.00
